Time;durP1;ratioP1;P1;durP2;ratioP2;P2;SDS_P1;SDS_P2;PMS_P1;PMS_P2;Temp;Humidity;BMP_temperature;BMP_pressure;BME280_temperature;BME280_humidity;BME280_pressure;Samples;Min_cycle;Max_cycle;Signal;HPM_P1;HPM_P2
2022/01/26 04:00:42;;;;;;;6.30;5.67;;;2.90;80.30;;;;;;6066777;23;21469;-76
2022/01/26 04:03:08;;;;;;;5.73;5.07;;;2.90;80.60;;;;;;4994978;28;20503;-75
2022/01/26 04:05:35;;;;;;;12.63;6.17;;;2.90;80.20;;;;;;4994557;28;20516;-76
2022/01/26 04:08:07;;;;;;;5.60;5.00;;;2.80;80.40;;;;;;4994496;28;20457;-75
2022/01/26 04:10:44;;;;;;;4.97;4.47;;;2.80;80.20;;;;;;4994429;28;20499;-75
2022/01/26 04:13:11;;;;;;;5.77;5.03;;;2.80;79.00;;;;;;4995498;28;20444;-75
2022/01/26 04:15:38;;;;;;;5.27;4.47;;;2.80;78.90;;;;;;4994401;28;20449;-74
2022/01/26 04:18:09;;;;;;;4.20;3.80;;;2.80;79.10;;;;;;4994319;28;20481;-76
2022/01/26 04:20:41;;;;;;;5.30;4.80;;;2.70;78.60;;;;;;4994225;28;20487;-75
2022/01/26 04:23:12;;;;;;;4.73;4.07;;;2.60;78.40;;;;;;4994312;28;20430;-75
2022/01/26 04:25:42;;;;;;;5.20;4.50;;;2.60;78.40;;;;;;4993896;28;20983;-75
2022/01/26 04:28:14;;;;;;;4.70;4.10;;;2.60;78.30;;;;;;4993895;28;20453;-75
2022/01/26 04:30:40;;;;;;;5.63;4.93;;;2.60;78.30;;;;;;4994141;28;20532;-75
2022/01/26 04:33:09;;;;;;;4.93;4.43;;;2.60;78.00;;;;;;4994219;28;20456;-75
2022/01/26 04:35:40;;;;;;;4.83;4.37;;;2.60;78.10;;;;;;4994145;28;20445;-76
2022/01/26 04:38:16;;;;;;;5.63;4.63;;;2.60;77.90;;;;;;4994725;28;20445;-76
2022/01/26 04:40:51;;;;;;;6.00;5.40;;;2.60;77.90;;;;;;4994095;28;20477;-75
2022/01/26 04:43:22;;;;;;;5.57;4.97;;;2.60;78.00;;;;;;4993920;28;20964;-76
2022/01/26 04:45:49;;;;;;;5.20;4.70;;;2.50;78.40;;;;;;4994006;28;20527;-76
2022/01/26 04:48:18;;;;;;;8.37;5.43;;;2.60;78.90;;;;;;4993762;28;20993;-75
2022/01/26 04:50:45;;;;;;;5.87;4.23;;;2.50;78.70;;;;;;4994271;28;20520;-75
2022/01/26 04:53:12;;;;;;;5.43;4.37;;;2.40;78.60;;;;;;4994063;28;20461;-75
2022/01/26 04:55:39;;;;;;;6.53;5.90;;;2.40;78.90;;;;;;4993968;28;20448;-74
2022/01/26 04:58:05;;;;;;;6.10;5.50;;;2.40;79.20;;;;;;4993981;28;20499;-75
2022/01/26 05:00:32;;;;;;;5.87;5.27;;;2.50;79.20;;;;;;4993518;28;20452;-75
2022/01/26 05:02:59;;;;;;;6.33;5.50;;;2.30;79.50;;;;;;4995686;28;20836;-75
2022/01/26 05:05:27;;;;;;;5.30;4.80;;;2.40;79.40;;;;;;4997815;28;20518;-76
2022/01/26 05:07:54;;;;;;;5.80;5.20;;;2.40;79.00;;;;;;4997846;28;20453;-75
2022/01/26 05:10:20;;;;;;;5.80;5.20;;;2.50;78.90;;;;;;4997794;28;20503;-75
2022/01/26 05:12:47;;;;;;;5.83;4.90;;;2.40;79.10;;;;;;4997466;28;20964;-75
2022/01/26 05:15:14;;;;;;;10.70;6.30;;;2.30;79.30;;;;;;4997740;28;20455;-76
2022/01/26 05:17:41;;;;;;;6.17;5.50;;;2.10;79.10;;;;;;4997684;28;20445;-75
2022/01/26 05:20:10;;;;;;;4.90;4.40;;;1.80;80.20;;;;;;4997354;28;20890;-74
2022/01/26 05:22:40;;;;;;;5.43;4.70;;;1.80;80.50;;;;;;4997454;28;20485;-75
2022/01/26 05:25:07;;;;;;;4.90;4.40;;;1.90;80.80;;;;;;4997114;28;20811;-75
2022/01/26 05:27:34;;;;;;;5.17;4.60;;;2.00;80.70;;;;;;4997536;28;20445;-75
2022/01/26 05:30:00;;;;;;;5.03;4.53;;;2.10;80.60;;;;;;4997434;28;20898;-75
2022/01/26 05:32:27;;;;;;;5.70;4.37;;;2.10;80.30;;;;;;4997344;28;20472;-75
2022/01/26 05:34:54;;;;;;;5.60;5.03;;;2.20;80.20;;;;;;4997114;28;20449;-76
2022/01/26 05:37:22;;;;;;;5.50;5.00;;;2.20;79.80;;;;;;4997325;28;20853;-76
2022/01/26 05:39:50;;;;;;;5.53;5.03;;;2.30;79.50;;;;;;4997307;28;20507;-75
2022/01/26 05:42:17;;;;;;;5.50;5.00;;;2.30;79.50;;;;;;4997212;28;20895;-75
2022/01/26 05:44:44;;;;;;;5.83;4.97;;;2.40;79.20;;;;;;4997323;28;20456;-75
2022/01/26 05:47:15;;;;;;;5.33;4.83;;;2.30;78.80;;;;;;4997140;28;20484;-76
2022/01/26 05:49:43;;;;;;;5.70;5.10;;;2.30;79.10;;;;;;4997159;28;20491;-76
2022/01/26 05:52:10;;;;;;;5.17;4.67;;;2.30;79.30;;;;;;4996621;28;21055;-76
2022/01/26 05:54:37;;;;;;;7.90;5.07;;;2.20;79.30;;;;;;4997008;28;20449;-75
2022/01/26 05:57:06;;;;;;;7.27;6.23;;;2.20;79.20;;;;;;4997202;28;20511;-74
2022/01/26 05:59:33;;;;;;;7.10;5.30;;;2.20;79.40;;;;;;4996903;28;20503;-74
2022/01/26 06:02:00;;;;;;;9.13;5.43;;;2.20;79.50;;;;;;4996468;28;20567;-74
2022/01/26 06:04:27;;;;;;;7.03;5.50;;;2.20;79.50;;;;;;4996632;28;20453;-75
2022/01/26 06:06:54;;;;;;;7.37;4.97;;;2.20;79.70;;;;;;4996589;28;20649;-75
2022/01/26 06:09:21;;;;;;;5.33;4.83;;;2.20;80.00;;;;;;4996618;28;20457;-75
2022/01/26 06:11:48;;;;;;;6.30;5.70;;;2.20;80.00;;;;;;4996524;28;20469;-75
2022/01/26 06:14:16;;;;;;;7.40;5.03;;;2.30;79.80;;;;;;4995499;28;20484;-75
2022/01/26 06:16:42;;;;;;;7.80;6.30;;;2.40;79.70;;;;;;4996497;28;20445;-75
2022/01/26 06:19:09;;;;;;;6.13;5.50;;;2.30;79.40;;;;;;4996484;28;20453;-75
2022/01/26 06:21:36;;;;;;;4.97;4.37;;;2.30;79.40;;;;;;4996349;28;20539;-75
2022/01/26 06:24:03;;;;;;;5.73;5.03;;;2.30;79.40;;;;;;4996433;28;20820;-75
2022/01/26 06:26:29;;;;;;;6.30;5.33;;;2.20;78.80;;;;;;4996254;28;20511;-75
2022/01/26 06:28:56;;;;;;;6.40;4.73;;;2.10;79.20;;;;;;4996321;28;20457;-75
2022/01/26 06:31:27;;;;;;;6.20;5.60;;;1.90;79.50;;;;;;4996238;28;20496;-75
2022/01/26 06:33:53;;;;;;;6.17;5.57;;;1.70;80.40;;;;;;4996266;28;20850;-75
2022/01/26 06:36:20;;;;;;;10.20;6.43;;;1.70;80.90;;;;;;4996202;28;20459;-75
2022/01/26 06:38:48;;;;;;;5.70;5.17;;;1.60;81.00;;;;;;4996160;28;20453;-75
2022/01/26 06:41:23;;;;;;;9.00;5.40;;;1.40;81.60;;;;;;4995985;28;20492;-75
2022/01/26 06:43:50;;;;;;;5.20;4.63;;;1.20;81.90;;;;;;4996076;28;20472;-75
2022/01/26 06:46:23;;;;;;;5.43;4.83;;;1.30;82.20;;;;;;4995867;28;20485;-74
2022/01/26 06:49:28;;;;;;;4.50;4.00;;;1.40;81.90;;;;;;4995749;28;20855;-75
2022/01/26 06:51:46;;;;;;;5.10;4.60;;;1.50;81.60;;;;;;4995635;28;20495;-78
2022/01/26 06:54:12;;;;;;;5.27;4.50;;;1.60;81.90;;;;;;4995601;28;20995;-75
2022/01/26 06:56:39;;;;;;;7.03;5.33;;;1.70;81.60;;;;;;4995870;28;20445;-74
2022/01/26 06:59:06;;;;;;;5.20;4.10;;;1.70;81.30;;;;;;4995707;28;20503;-75
2022/01/26 07:01:33;;;;;;;6.20;4.80;;;1.80;80.90;;;;;;4995436;28;20496;-75
2022/01/26 07:04:01;;;;;;;6.20;5.23;;;1.90;80.90;;;;;;4995710;28;20450;-75
2022/01/26 07:06:27;;;;;;;8.60;5.80;;;2.00;80.70;;;;;;4995614;28;20608;-75
2022/01/26 07:08:54;;;;;;;10.53;6.73;;;2.00;80.50;;;;;;4995577;28;20445;-75
2022/01/26 07:11:21;;;;;;;5.53;4.90;;;2.00;80.60;;;;;;4995139;28;20481;-76
2022/01/26 07:13:47;;;;;;;5.70;5.13;;;2.10;80.60;;;;;;4995474;28;20469;-75
2022/01/26 07:21:43;;;;;;;5.30;4.40;;;1.80;80.90;;;;;;4995340;28;20488;-75
2022/01/26 07:24:10;;;;;;;7.27;5.40;;;1.60;81.60;;;;;;4995265;28;20445;-76
2022/01/26 07:26:37;;;;;;;6.60;5.90;;;1.70;81.90;;;;;;4995038;28;20539;-76
2022/01/26 07:29:10;;;;;;;5.50;4.90;;;1.60;81.60;;;;;;4994947;28;20870;-76
2022/01/26 07:31:42;;;;;;;5.97;5.47;;;1.60;82.30;;;;;;4995161;28;20517;-76
2022/01/26 07:34:09;;;;;;;6.73;6.03;;;1.80;81.40;;;;;;4994878;28;20909;-76
2022/01/26 07:36:36;;;;;;;5.50;4.83;;;1.70;80.90;;;;;;4995172;28;20442;-76
2022/01/26 07:39:09;;;;;;;5.60;5.07;;;1.70;80.90;;;;;;4995099;28;20476;-76
2022/01/26 07:41:35;;;;;;;5.97;5.37;;;1.10;82.00;;;;;;4995296;28;20568;-76
2022/01/26 07:44:03;;;;;;;5.20;4.70;;;1.20;83.00;;;;;;4994804;28;20949;-76
2022/01/26 07:46:30;;;;;;;5.87;5.00;;;1.20;82.40;;;;;;4994466;28;20476;-76
2022/01/26 07:48:57;;;;;;;6.50;5.03;;;1.30;83.00;;;;;;4994900;28;20453;-76
2022/01/26 07:51:24;;;;;;;5.47;4.90;;;1.50;82.80;;;;;;4995142;28;20469;-76
2022/01/26 07:53:50;;;;;;;10.47;6.00;;;1.60;82.10;;;;;;4995049;28;20452;-75
2022/01/26 07:56:18;;;;;;;5.80;5.30;;;1.70;81.80;;;;;;4994698;28;20446;-76
2022/01/26 07:58:47;;;;;;;5.50;4.83;;;1.60;81.20;;;;;;4994836;28;20485;-75
2022/01/26 08:01:14;;;;;;;5.43;4.93;;;1.70;81.20;;;;;;4994146;28;20515;-76
2022/01/26 08:03:41;;;;;;;6.30;5.70;;;1.80;80.80;;;;;;4994535;28;20473;-75
2022/01/26 08:06:14;;;;;;;5.10;4.60;;;1.90;80.80;;;;;;4994509;28;20453;-76
2022/01/26 08:08:40;;;;;;;5.83;5.00;;;1.90;80.70;;;;;;4994557;28;20445;-76
2022/01/26 08:11:07;;;;;;;4.67;4.17;;;2.00;80.70;;;;;;4994338;28;20532;-76
2022/01/26 08:13:35;;;;;;;6.00;5.27;;;2.10;80.10;;;;;;4994340;28;20460;-77
2022/01/26 08:16:02;;;;;;;5.10;4.60;;;2.10;79.90;;;;;;4994376;28;20504;-76
2022/01/26 08:18:28;;;;;;;6.07;5.53;;;2.20;79.60;;;;;;4995042;28;20869;-76
2022/01/26 08:21:01;;;;;;;5.27;4.63;;;2.30;79.20;;;;;;4994527;28;20819;-76
2022/01/26 08:23:28;;;;;;;5.43;4.93;;;2.30;78.90;;;;;;4994625;28;20430;-77
2022/01/26 08:25:54;;;;;;;5.90;5.30;;;2.30;78.30;;;;;;4994435;28;20444;-76
2022/01/26 08:28:27;;;;;;;5.07;4.50;;;2.30;78.40;;;;;;4994328;28;20519;-76
2022/01/26 08:30:55;;;;;;;5.20;4.70;;;2.30;78.50;;;;;;4994304;28;20531;-74
2022/01/26 08:33:21;;;;;;;5.40;4.90;;;2.20;78.70;;;;;;4994752;28;20445;-77
2022/01/26 08:35:48;;;;;;;5.83;5.33;;;2.20;78.90;;;;;;4994314;28;21011;-75
2022/01/26 08:38:15;;;;;;;7.43;5.13;;;2.20;79.20;;;;;;4994010;28;20445;-77
2022/01/26 08:40:43;;;;;;;5.07;4.57;;;2.30;79.30;;;;;;4994066;28;20896;-79
2022/01/26 08:43:10;;;;;;;6.80;6.20;;;2.30;79.20;;;;;;4995143;28;20500;-76
2022/01/26 08:45:37;;;;;;;5.93;5.33;;;2.40;79.50;;;;;;4994507;28;20875;-78
2022/01/26 08:48:05;;;;;;;6.20;5.60;;;2.50;79.10;;;;;;4994653;28;20476;-78
2022/01/26 08:50:32;;;;;;;6.10;5.50;;;2.50;79.30;;;;;;4994420;28;20457;-77
2022/01/26 08:52:59;;;;;;;5.67;5.03;;;2.50;79.00;;;;;;4994575;28;20516;-78
2022/01/26 08:55:26;;;;;;;5.90;5.30;;;2.50;79.00;;;;;;4994245;28;20509;-77
2022/01/26 08:57:53;;;;;;;6.37;5.57;;;2.60;79.00;;;;;;4995834;28;20437;-78
2022/01/26 09:00:20;;;;;;;5.90;5.30;;;2.60;78.90;;;;;;4994475;28;20999;-77
2022/01/26 09:02:50;;;;;;;6.10;5.50;;;2.60;78.80;;;;;;4993908;28;20468;-76
2022/01/26 09:05:18;;;;;;;5.80;5.30;;;2.60;78.80;;;;;;4993840;28;20955;-77
2022/01/26 09:07:45;;;;;;;6.03;5.50;;;2.60;78.80;;;;;;4993708;28;20875;-77
2022/01/26 09:10:12;;;;;;;6.23;5.63;;;2.60;78.90;;;;;;4993770;28;20469;-77
2022/01/26 09:12:41;;;;;;;7.13;6.43;;;2.60;79.00;;;;;;4993884;28;20496;-77
2022/01/26 09:15:09;;;;;;;6.00;5.40;;;2.60;78.90;;;;;;4993886;28;20488;-77
2022/01/26 09:17:37;;;;;;;6.33;5.30;;;2.60;78.90;;;;;;4993966;28;20449;-78
2022/01/26 09:20:05;;;;;;;6.23;5.63;;;2.70;79.00;;;;;;4993701;28;20984;-77
2022/01/26 09:22:33;;;;;;;6.43;5.83;;;2.80;78.80;;;;;;4993684;28;20469;-77
2022/01/26 09:24:59;;;;;;;6.60;5.90;;;2.90;78.90;;;;;;4993621;28;21000;-77
2022/01/26 09:27:26;;;;;;;5.83;5.30;;;2.90;78.30;;;;;;4993878;28;20492;-77
2022/01/26 09:29:53;;;;;;;7.00;6.30;;;2.80;78.40;;;;;;4993796;28;20455;-77
2022/01/26 09:32:20;;;;;;;6.80;6.20;;;2.90;78.40;;;;;;4993709;28;20516;-77
2022/01/26 09:34:46;;;;;;;6.60;6.00;;;2.80;78.70;;;;;;4993323;28;20870;-77
2022/01/26 09:37:16;;;;;;;6.90;6.30;;;2.70;78.40;;;;;;4993746;28;20553;-76
2022/01/26 09:39:47;;;;;;;6.93;6.00;;;2.60;78.70;;;;;;4993850;28;20460;-76
2022/01/26 09:42:13;;;;;;;6.17;5.57;;;2.60;78.90;;;;;;4993874;28;20980;-77
2022/01/26 09:44:41;;;;;;;6.30;5.70;;;2.70;78.90;;;;;;4993972;28;20437;-78
2022/01/26 09:47:09;;;;;;;6.33;5.73;;;2.80;78.90;;;;;;4994195;28;20489;-78
2022/01/26 09:49:36;;;;;;;6.10;5.50;;;2.90;78.90;;;;;;4997048;28;20457;-78
2022/01/26 09:52:07;;;;;;;6.40;5.80;;;2.90;78.80;;;;;;4998150;28;21003;-79
2022/01/26 09:54:33;;;;;;;6.00;5.40;;;2.90;77.70;;;;;;4998271;28;20449;-78
2022/01/26 09:57:04;;;;;;;7.27;6.57;;;2.80;78.00;;;;;;4997936;28;20476;-79
2022/01/26 09:59:32;;;;;;;5.83;5.23;;;2.80;78.40;;;;;;4997729;28;20800;-78
2022/01/26 10:01:59;;;;;;;6.20;5.60;;;2.80;78.90;;;;;;4997224;28;20539;-78
2022/01/26 10:04:28;;;;;;;7.50;6.83;;;2.90;78.70;;;;;;4997814;28;20918;-77
2022/01/26 10:07:05;;;;;;;7.13;6.43;;;2.60;78.30;;;;;;4997173;28;20919;-78
2022/01/26 10:15:31;;;;;;;7.27;6.57;;;1.20;83.20;;;;;;5047606;23;20487;-80
2022/01/26 10:18:03;;;;;;;8.77;7.97;;;1.00;84.40;;;;;;4996732;28;20516;-78
2022/01/26 10:20:40;;;;;;;7.47;6.70;;;1.20;84.80;;;;;;4996849;28;20434;-78
2022/01/26 10:23:08;;;;;;;7.83;7.13;;;1.50;84.60;;;;;;4996567;28;20521;-77
2022/01/26 10:25:35;;;;;;;8.37;7.50;;;1.60;83.70;;;;;;4996077;28;20870;-78
2022/01/26 10:28:03;;;;;;;8.33;7.37;;;1.40;83.60;;;;;;4995953;28;20493;-77
2022/01/26 10:30:29;;;;;;;7.17;6.57;;;1.60;84.20;;;;;;4995976;28;20515;-77
2022/01/26 10:32:56;;;;;;;8.17;7.47;;;1.70;83.40;;;;;;4996222;28;20508;-78
2022/01/26 10:35:23;;;;;;;6.47;5.87;;;1.90;83.40;;;;;;4996314;28;20461;-78
2022/01/26 10:37:51;;;;;;;6.93;6.33;;;2.10;82.90;;;;;;4995807;28;20434;-78
2022/01/26 10:40:21;;;;;;;7.20;6.50;;;2.30;81.90;;;;;;4996535;28;20445;-78
2022/01/26 10:43:01;;;;;;;8.10;7.40;;;2.00;81.50;;;;;;4996369;28;20532;-78
2022/01/26 10:45:47;;;;;;;7.00;6.33;;;1.90;82.00;;;;;;4996746;28;20678;-78
2022/01/26 10:48:22;;;;;;;7.40;6.70;;;1.90;82.30;;;;;;4995827;28;20984;-78
2022/01/26 10:51:20;;;;;;;7.60;6.90;;;1.90;82.90;;;;;;4996013;28;20441;-77
2022/01/26 10:53:49;;;;;;;8.00;7.20;;;1.70;82.20;;;;;;4998228;28;20472;-77
2022/01/26 10:56:17;;;;;;;7.23;6.30;;;1.50;83.50;;;;;;5000853;28;20430;-78
2022/01/26 10:58:44;;;;;;;6.73;6.13;;;1.40;84.10;;;;;;5001795;28;20476;-78
2022/01/26 11:01:12;;;;;;;8.47;7.67;;;1.40;84.50;;;;;;4997504;28;20449;-77
2022/01/26 11:03:39;;;;;;;6.83;6.20;;;1.60;84.90;;;;;;4996002;28;20490;-77
2022/01/26 11:06:07;;;;;;;6.90;6.30;;;1.80;84.10;;;;;;4997702;28;20507;-77
2022/01/26 11:08:39;;;;;;;7.27;6.57;;;1.90;83.10;;;;;;4996661;28;20551;-77
2022/01/26 11:11:06;;;;;;;6.80;6.13;;;1.70;83.30;;;;;;4995567;28;20488;-77
2022/01/26 11:13:36;;;;;;;7.10;6.43;;;1.90;83.90;;;;;;4995880;28;20945;-78
2022/01/26 11:16:09;;;;;;;7.97;7.17;;;2.00;82.90;;;;;;4997210;28;20515;-77
2022/01/26 11:18:52;;;;;;;7.77;6.97;;;2.10;83.50;;;;;;4994849;28;20910;-77
2022/01/26 11:21:31;;;;;;;7.57;6.87;;;2.20;83.30;;;;;;4997008;28;20499;-77
2022/01/26 11:24:16;;;;;;;7.13;6.43;;;2.40;82.90;;;;;;4997796;28;20933;-77
2022/01/26 11:26:44;;;;;;;8.93;7.10;;;2.50;82.70;;;;;;5001668;28;20441;-78
2022/01/26 11:29:24;;;;;;;7.57;6.87;;;2.50;82.80;;;;;;4998244;28;20477;-78
2022/01/26 11:32:04;;;;;;;6.20;5.60;;;2.60;82.30;;;;;;5002732;28;20440;-78
2022/01/26 11:34:33;;;;;;;5.93;5.43;;;2.70;81.80;;;;;;4998787;28;20469;-79
2022/01/26 11:37:02;;;;;;;7.10;6.40;;;2.90;81.30;;;;;;4994478;28;20933;-78
2022/01/26 11:45:02;;;;;;;6.60;5.93;;;2.70;81.20;;;;;;4995236;28;20413;-76
2022/01/26 11:45:16;;;;;;;7.03;6.37;;;3.00;80.90;;;;;;4998394;28;20457;-78
2022/01/26 11:47:57;;;;;;;7.30;6.60;;;3.20;80.70;;;;;;5004032;28;20467;-78
2022/01/26 11:50:27;;;;;;;6.50;5.90;;;3.20;80.50;;;;;;4999462;28;20440;-78
2022/01/26 11:53:01;;;;;;;6.53;5.93;;;3.40;80.50;;;;;;4997107;28;20937;-78
2022/01/26 11:55:32;;;;;;;6.47;5.87;;;3.50;80.10;;;;;;4994654;28;20473;-78
2022/01/26 11:58:14;;;;;;;7.60;6.87;;;3.50;79.90;;;;;;4995137;28;20437;-78
2022/01/26 12:00:52;;;;;;;6.87;6.20;;;3.60;79.40;;;;;;4995595;28;20544;-76
2022/01/26 12:03:24;;;;;;;6.13;5.50;;;3.60;79.00;;;;;;4994553;28;20942;-77
2022/01/26 12:05:56;;;;;;;6.10;5.50;;;3.50;79.20;;;;;;4994832;28;20452;-77
2022/01/26 12:08:31;;;;;;;6.20;5.60;;;3.60;79.00;;;;;;4994510;28;20474;-77
2022/01/26 12:10:58;;;;;;;7.33;6.63;;;3.60;79.20;;;;;;4993957;28;20449;-77
2022/01/26 12:13:27;;;;;;;6.70;6.00;;;3.70;79.80;;;;;;4993893;28;20453;-78
2022/01/26 12:15:57;;;;;;;6.83;6.13;;;3.70;79.30;;;;;;4994949;28;20940;-77
2022/01/26 12:18:31;;;;;;;6.30;5.70;;;3.70;79.20;;;;;;4996760;28;20495;-78
2022/01/26 12:32:24;;;;;;;6.90;6.30;;;3.80;79.30;;;;;;4994842;28;20409;-79
2022/01/26 12:35:00;;;;;;;7.33;6.60;;;3.80;79.60;;;;;;4994554;28;20523;-78
2022/01/26 12:37:40;;;;;;;7.60;6.80;;;3.90;79.30;;;;;;4994439;28;20436;-78
2022/01/26 12:45:39;;;;;;;7.00;6.20;;;4.10;79.00;;;;;;4989380;28;20547;-78
2022/01/26 12:48:09;;;;;;;7.00;6.30;;;4.10;78.70;;;;;;4994576;28;20485;-76
2022/01/26 12:50:38;;;;;;;6.70;6.00;;;3.90;79.10;;;;;;4995173;28;20449;-78
2022/01/26 12:53:06;;;;;;;7.60;6.90;;;4.00;79.20;;;;;;4996298;28;20449;-78
2022/01/26 12:55:37;;;;;;;7.63;6.93;;;4.00;78.90;;;;;;4995726;28;20457;-79
2022/01/26 12:58:05;;;;;;;8.77;7.97;;;3.70;79.70;;;;;;5001439;28;20453;-78
2022/01/26 13:00:40;;;;;;;7.60;6.93;;;3.80;79.90;;;;;;5003680;28;20445;-79
2022/01/26 13:03:10;;;;;;;7.77;6.97;;;3.90;79.70;;;;;;4993821;28;20448;-78
2022/01/26 13:05:37;;;;;;;7.60;6.90;;;3.90;79.70;;;;;;4993919;28;20453;-78
2022/01/26 13:08:07;;;;;;;8.13;7.33;;;3.80;79.80;;;;;;4994119;28;20476;-78
2022/01/26 13:10:34;;;;;;;8.37;7.57;;;3.70;80.90;;;;;;4994689;28;20809;-78
2022/01/26 13:13:12;;;;;;;7.83;7.13;;;3.80;80.70;;;;;;4993604;28;20461;-78
2022/01/26 13:15:46;;;;;;;8.50;7.60;;;3.90;80.50;;;;;;4995291;28;20491;-77
2022/01/26 13:18:22;;;;;;;8.00;7.20;;;3.90;80.20;;;;;;4994074;28;20529;-78
2022/01/26 13:21:15;;;;;;;8.90;8.07;;;3.60;80.50;;;;;;4996772;28;20455;-78
2022/01/26 13:24:02;;;;;;;7.77;6.97;;;3.20;81.60;;;;;;4995306;28;20994;-78
2022/01/26 13:26:37;;;;;;;7.63;6.93;;;3.30;82.10;;;;;;4997038;28;20437;-78
2022/01/26 13:29:19;;;;;;;7.70;7.00;;;3.20;82.10;;;;;;4997339;28;20523;-78
2022/01/26 13:34:58;;;;;;;7.33;6.63;;;2.90;83.70;;;;;;4997884;28;20815;-79
2022/01/26 13:37:36;;;;;;;7.27;6.60;;;2.90;83.90;;;;;;4997900;28;20437;-79
2022/01/26 13:40:24;;;;;;;7.83;7.03;;;2.80;83.60;;;;;;4997530;28;20437;-78
2022/01/26 13:43:26;;;;;;;6.53;5.80;;;3.10;83.50;;;;;;4997899;28;20433;-78
2022/01/26 13:46:13;;;;;;;8.10;6.20;;;3.20;82.80;;;;;;4997461;28;20457;-79
2022/01/26 13:49:12;;;;;;;8.37;6.87;;;3.30;82.70;;;;;;4997695;28;21046;-78
2022/01/26 13:51:46;;;;;;;7.70;7.00;;;3.30;82.30;;;;;;4997943;28;20805;-79
2022/01/26 13:54:40;;;;;;;6.87;6.27;;;3.40;82.00;;;;;;4998662;28;20479;-78
2022/01/26 13:57:25;;;;;;;6.93;6.23;;;3.40;81.90;;;;;;4997617;28;20441;-78
2022/01/26 13:59:54;;;;;;;6.20;5.60;;;3.40;82.00;;;;;;4996970;28;20488;-78
2022/01/26 14:02:22;;;;;;;6.13;5.53;;;3.40;81.70;;;;;;4996926;28;20551;-78
2022/01/26 14:04:49;;;;;;;6.63;5.93;;;3.40;81.50;;;;;;4996805;28;20964;-78
2022/01/26 14:07:16;;;;;;;5.97;5.37;;;3.30;80.90;;;;;;4998924;28;20453;-78
2022/01/26 14:09:44;;;;;;;5.27;4.50;;;3.40;81.20;;;;;;5002525;28;20575;-78
2022/01/26 14:12:16;;;;;;;8.00;7.20;;;3.40;81.00;;;;;;5003614;28;20578;-78
2022/01/26 14:14:46;;;;;;;5.67;5.17;;;3.50;80.90;;;;;;5003406;28;20489;-79
2022/01/26 14:17:16;;;;;;;5.73;5.23;;;3.50;80.50;;;;;;5005114;28;20478;-78
2022/01/26 14:20:07;;;;;;;6.60;5.97;;;3.60;80.40;;;;;;5007152;28;20459;-79
2022/01/26 14:22:39;;;;;;;6.33;5.73;;;3.70;80.20;;;;;;5006640;28;20532;-78
2022/01/26 14:25:16;;;;;;;6.80;6.20;;;3.70;79.70;;;;;;5000839;28;20817;-77
2022/01/26 14:27:48;;;;;;;5.37;4.70;;;3.70;79.70;;;;;;5002390;28;20444;-78
2022/01/26 14:30:31;;;;;;;5.60;5.07;;;3.50;79.80;;;;;;4995975;28;20428;-78
2022/01/26 14:35:53;;;;;;;6.37;5.77;;;3.40;81.20;;;;;;4995544;28;20465;-78
2022/01/26 15:09:25;;;;;;;6.97;5.57;;;2.50;83.00;;;;;;4995557;28;20461;-78
2022/01/26 15:12:20;;;;;;;5.47;4.27;;;2.50;83.40;;;;;;4995184;28;20441;-78
2022/01/26 15:34:19;;;;;;;5.13;4.37;;;2.50;83.40;;;;;;4995546;28;20449;-78
2022/01/26 15:42:37;;;;;;;5.63;4.83;;;2.50;83.10;;;;;;4995452;28;20409;-78
2022/01/26 15:50:43;;;;;;;6.43;4.77;;;2.60;83.10;;;;;;4994905;28;20405;-78
2022/01/26 15:53:16;;;;;;;5.47;4.47;;;2.70;82.80;;;;;;4994622;28;20726;-78
2022/01/26 15:58:33;;;;;;;5.50;4.80;;;2.90;82.50;;;;;;4994823;28;20397;-78
2022/01/26 16:06:56;;;;;;;5.90;5.10;;;2.90;81.50;;;;;;4994422;28;20413;-78
2022/01/26 16:20:47;;;;;;;4.23;3.83;;;2.70;80.90;;;;;;4995617;28;20405;-71
2022/01/26 18:13:41;;;;;;;5.60;5.07;;;3.30;79.70;;;;;;4998327;28;20421;-73
2022/01/26 18:16:09;;;;;;;6.00;5.17;;;3.30;79.80;;;;;;4997901;28;20475;-73
2022/01/26 18:27:05;;;;;;;6.43;5.77;;;3.40;79.70;;;;;;4998166;28;20529;-73
2022/01/26 18:32:24;;;;;;;7.20;6.50;;;3.40;79.30;;;;;;4997902;28;20468;-73
2022/01/26 18:40:41;;;;;;;6.87;6.27;;;3.30;79.50;;;;;;4997570;28;20405;-73
2022/01/26 18:51:24;;;;;;;6.10;5.50;;;3.20;80.00;;;;;;4996273;28;20460;-72
2022/01/26 18:53:50;;;;;;;6.87;6.23;;;3.20;80.20;;;;;;4996659;28;20457;-73
2022/01/26 18:56:17;;;;;;;6.73;6.03;;;3.20;80.00;;;;;;4998258;28;20479;-73
2022/01/26 18:58:44;;;;;;;6.10;5.40;;;3.30;79.90;;;;;;4997437;28;20445;-73
2022/01/26 19:01:11;;;;;;;8.30;7.60;;;3.30;79.70;;;;;;4997294;28;20445;-74
2022/01/26 19:03:38;;;;;;;7.87;7.07;;;3.30;79.50;;;;;;4996980;28;20949;-72
2022/01/26 19:06:04;;;;;;;7.37;6.73;;;3.30;79.60;;;;;;4997555;28;20453;-73
2022/01/26 19:08:33;;;;;;;7.90;6.83;;;3.30;79.30;;;;;;4997815;28;20813;-73
2022/01/26 19:11:00;;;;;;;7.40;6.70;;;3.30;79.40;;;;;;4997385;28;20461;-73
2022/01/26 19:13:29;;;;;;;7.17;6.47;;;3.30;79.80;;;;;;4997388;28;20457;-72
2022/01/26 19:16:02;;;;;;;6.97;6.37;;;3.30;80.00;;;;;;4996918;28;20531;-73
2022/01/26 19:18:44;;;;;;;6.37;5.77;;;3.30;79.80;;;;;;4997273;28;20774;-73
2022/01/26 19:21:17;;;;;;;7.60;6.80;;;3.30;79.60;;;;;;4996598;28;20909;-73
2022/01/26 19:24:01;;;;;;;7.30;6.57;;;3.30;79.90;;;;;;4996744;28;20522;-73
2022/01/26 19:26:33;;;;;;;7.20;6.20;;;3.40;79.80;;;;;;4997173;28;20440;-72
2022/01/26 19:29:09;;;;;;;7.63;6.50;;;3.40;79.80;;;;;;4996827;28;20501;-74
2022/01/26 19:32:18;;;;;;;7.10;6.40;;;3.40;79.70;;;;;;4997143;28;20436;-73
2022/01/26 19:41:08;;;;;;;7.30;6.53;;;3.40;79.70;;;;;;4961732;28;20565;-73
2022/01/26 19:43:37;;;;;;;7.33;6.60;;;3.40;80.00;;;;;;4996126;28;20976;-73
2022/01/26 19:46:11;;;;;;;7.00;6.10;;;3.40;79.80;;;;;;4996334;28;20425;-74
2022/01/26 19:51:23;;;;;;;6.70;6.00;;;3.50;79.50;;;;;;4996292;28;20412;-72
2022/01/26 19:53:50;;;;;;;7.10;6.50;;;3.50;79.50;;;;;;4996299;28;20472;-73
2022/01/26 19:56:18;;;;;;;6.40;5.80;;;3.50;79.50;;;;;;4996562;28;20550;-74
2022/01/26 19:58:45;;;;;;;8.70;7.90;;;3.50;79.20;;;;;;4996415;28;20826;-74
2022/01/26 20:01:12;;;;;;;7.33;6.53;;;3.50;79.40;;;;;;4996195;28;20448;-74
2022/01/26 20:03:39;;;;;;;6.33;5.60;;;3.50;79.50;;;;;;4996268;28;20456;-73
2022/01/26 20:06:08;;;;;;;6.57;5.87;;;3.50;79.50;;;;;;4996563;28;20460;-74
2022/01/26 20:08:39;;;;;;;8.47;7.67;;;3.40;79.50;;;;;;4996124;28;20452;-73
2022/01/26 20:11:10;;;;;;;9.17;7.63;;;3.40;79.50;;;;;;4996008;28;20476;-72
2022/01/26 20:13:40;;;;;;;7.90;6.50;;;3.40;79.60;;;;;;4996041;28;20429;-73
2022/01/26 20:16:08;;;;;;;7.40;6.63;;;3.40;79.70;;;;;;4996427;28;20457;-71
2022/01/26 20:18:36;;;;;;;7.57;6.87;;;3.40;79.60;;;;;;4995859;28;20449;-71
2022/01/26 20:21:03;;;;;;;7.53;6.83;;;3.40;79.70;;;;;;4995706;28;20441;-73
2022/01/26 20:23:33;;;;;;;6.30;5.70;;;3.50;79.80;;;;;;4995942;28;20445;-71
2022/01/26 20:26:01;;;;;;;7.33;6.40;;;3.50;79.60;;;;;;4995691;28;20508;-73
2022/01/26 20:28:30;;;;;;;8.00;6.60;;;3.50;79.60;;;;;;4995508;28;20820;-71
2022/01/26 20:31:01;;;;;;;7.50;6.80;;;3.50;79.60;;;;;;4995720;28;20476;-73
2022/01/26 20:33:28;;;;;;;8.13;7.33;;;3.60;79.40;;;;;;4993547;28;20968;-71
2022/01/26 20:35:55;;;;;;;7.80;6.43;;;3.60;79.40;;;;;;4994057;28;20523;-72
2022/01/26 20:38:22;;;;;;;7.50;6.77;;;3.50;79.60;;;;;;4994122;28;20453;-72
2022/01/26 20:40:49;;;;;;;8.30;7.50;;;3.60;79.60;;;;;;4994081;28;20441;-72
2022/01/26 20:43:15;;;;;;;7.73;6.93;;;3.50;79.40;;;;;;4994064;28;20449;-71
2022/01/26 20:45:44;;;;;;;8.10;7.20;;;3.40;79.60;;;;;;4993999;28;20476;-71
2022/01/26 20:48:12;;;;;;;7.63;6.30;;;3.40;79.60;;;;;;4994073;28;20548;-72
2022/01/26 20:50:38;;;;;;;6.90;6.20;;;3.50;79.30;;;;;;4993951;28;20485;-71
2022/01/26 20:53:05;;;;;;;7.00;5.90;;;3.60;79.30;;;;;;4993972;28;20495;-72
2022/01/26 20:55:32;;;;;;;7.90;7.20;;;3.50;79.40;;;;;;4993918;28;20469;-72
2022/01/26 20:58:00;;;;;;;7.80;5.80;;;3.40;79.20;;;;;;4993966;28;20453;-72
2022/01/26 21:00:27;;;;;;;7.20;6.50;;;3.30;79.90;;;;;;4993731;28;20808;-71
2022/01/26 21:02:54;;;;;;;6.87;6.27;;;3.30;79.70;;;;;;4993875;28;20884;-71
2022/01/26 21:05:24;;;;;;;7.73;7.03;;;3.20;80.00;;;;;;4993750;28;20500;-72
2022/01/26 21:07:51;;;;;;;7.20;6.27;;;3.00;80.80;;;;;;4993798;28;20445;-70
2022/01/26 21:10:18;;;;;;;7.07;6.40;;;3.10;80.90;;;;;;4993770;28;20485;-73
2022/01/26 21:12:45;;;;;;;6.73;6.13;;;3.10;80.70;;;;;;4993552;28;20999;-72
2022/01/26 21:15:12;;;;;;;7.07;6.37;;;3.00;80.90;;;;;;4993444;28;20480;-73
2022/01/26 21:17:40;;;;;;;6.53;5.83;;;3.20;80.40;;;;;;4993329;28;20867;-73
2022/01/26 21:20:11;;;;;;;6.83;6.10;;;3.20;80.40;;;;;;4993627;28;20456;-71
2022/01/26 21:22:39;;;;;;;6.97;6.10;;;3.20;80.40;;;;;;4993462;28;20924;-71
2022/01/26 21:25:07;;;;;;;6.40;5.73;;;3.10;80.30;;;;;;4993586;28;20784;-71
2022/01/26 21:27:34;;;;;;;7.07;6.37;;;3.00;80.60;;;;;;4994166;28;20480;-71
2022/01/26 21:30:00;;;;;;;6.30;5.70;;;3.10;80.40;;;;;;4993484;28;20496;-71
2022/01/26 21:32:28;;;;;;;6.40;5.80;;;3.00;80.20;;;;;;4993544;28;20501;-71
2022/01/26 21:34:54;;;;;;;7.73;6.10;;;2.80;80.90;;;;;;4993448;28;20469;-71
2022/01/26 21:37:21;;;;;;;6.70;5.53;;;2.60;81.80;;;;;;4993188;28;20940;-71